Time;durP1;ratioP1;P1;durP2;ratioP2;P2;SDS_P1;SDS_P2;PMS_P1;PMS_P2;Temp;Humidity;BMP_temperature;BMP_pressure;BME280_temperature;BME280_humidity;BME280_pressure;Samples;Min_cycle;Max_cycle;Signal;HPM_P1;HPM_P2
2022/04/10 00:01:59;;;;;;;;;;;;;;;13.55;57.73;99381.66;1801456;79;20185;-57
2022/04/10 00:05:05;;;;;;;;;;;;;;;13.51;57.89;99381.25;1801426;79;20668;-57
2022/04/10 00:08:10;;;;;;;;;;;;;;;13.48;58.06;99373.95;1801565;80;20236;-57
2022/04/10 00:11:16;;;;;;;;;;;;;;;13.44;58.25;99357.08;1801474;79;20249;-56
2022/04/10 00:14:23;;;;;;;;;;;;;;;13.41;58.44;99367.67;1801537;80;20246;-57
2022/04/10 00:17:27;;;;;;;;;;;;;;;13.40;58.62;99370.94;1801306;80;20221;-58
2022/04/10 00:20:33;;;;;;;;;;;;;;;13.42;58.78;99362.47;1801400;79;20241;-59
2022/04/10 00:23:38;;;;;;;;;;;;;;;13.41;58.86;99371.79;1800987;80;20213;-59
2022/04/10 00:26:42;;;;;;;;;;;;;;;13.39;58.94;99369.26;1800682;79;20197;-58
2022/04/10 00:29:48;;;;;;;;;;;;;;;13.40;59.05;99368.19;1800840;79;20245;-57
2022/04/10 00:32:53;;;;;;;;;;;;;;;13.38;59.11;99378.55;1801047;79;20193;-58
2022/04/10 00:35:58;;;;;;;;;;;;;;;13.39;59.19;99387.12;1801504;79;20272;-58
2022/04/10 00:39:03;;;;;;;;;;;;;;;13.43;59.20;99386.98;1801351;80;20431;-58
2022/04/10 00:42:07;;;;;;;;;;;;;;;13.44;59.15;99373.58;1799158;79;20497;-57
2022/04/10 00:45:16;;;;;;;;;;;;;;;13.44;59.16;99373.58;1801017;79;20194;-58
2022/04/10 00:48:20;;;;;;;;;;;;;;;13.43;59.13;99383.39;1800944;80;20233;-58
2022/04/10 00:51:43;;;;;;;;;;;;;;;13.42;59.14;99385.31;1800954;79;20597;-58
2022/04/10 00:54:48;;;;;;;;;;;;;;;13.42;59.16;99382.56;1800929;79;20573;-59
2022/04/10 00:57:54;;;;;;;;;;;;;;;13.42;59.29;99378.96;1801430;80;20197;-57
2022/04/10 01:00:58;;;;;;;;;;;;;;;13.41;59.29;99387.73;1799781;78;20225;-56
2022/04/10 01:04:06;;;;;;;;;;;;;;;13.40;59.31;99390.18;1801532;80;20655;-57
2022/04/10 01:07:13;;;;;;;;;;;;;;;13.42;59.38;99405.94;1801545;79;20197;-58
2022/04/10 01:10:18;;;;;;;;;;;;;;;13.41;59.39;99402.84;1801512;79;20514;-58
2022/04/10 01:13:24;;;;;;;;;;;;;;;13.40;59.51;99408.05;1801339;80;20185;-57
2022/04/10 01:16:31;;;;;;;;;;;;;;;13.39;59.64;99402.25;1801492;79;20221;-56
2022/04/10 01:19:35;;;;;;;;;;;;;;;13.38;59.83;99406.04;1801484;80;20193;-58
2022/04/10 01:22:46;;;;;;;;;;;;;;;13.36;60.04;99410.94;1801348;80;20205;-58
2022/04/10 01:25:52;;;;;;;;;;;;;;;13.35;60.27;99402.91;1801515;79;20242;-58
2022/04/10 01:29:01;;;;;;;;;;;;;;;13.34;60.45;99403.42;1801445;79;20178;-57
2022/04/10 01:31:54;;;;;;;;;;;;;;;13.32;60.41;99401.94;1801551;79;20186;-57
2022/04/10 01:34:59;;;;;;;;;;;;;;;13.28;60.55;99397.95;1799764;79;20189;-58
2022/04/10 01:38:04;;;;;;;;;;;;;;;13.25;60.68;99404.73;1801518;80;20201;-58
2022/04/10 01:41:10;;;;;;;;;;;;;;;13.24;60.93;99401.66;1801657;79;20189;-58
2022/04/10 01:44:17;;;;;;;;;;;;;;;13.22;61.17;99401.02;1801438;79;20202;-58
2022/04/10 01:47:23;;;;;;;;;;;;;;;13.22;61.44;99404.32;1801482;80;20256;-58
2022/04/10 01:50:28;;;;;;;;;;;;;;;13.20;61.81;99410.03;1801526;79;20186;-58
2022/04/10 01:53:34;;;;;;;;;;;;;;;13.19;62.16;99412.45;1801512;80;20225;-58
2022/04/10 01:56:39;;;;;;;;;;;;;;;13.17;62.52;99415.97;1801498;79;20193;-58
2022/04/10 01:59:44;;;;;;;;;;;;;;;13.11;63.00;99422.84;1801525;80;20198;-57
2022/04/10 02:02:50;;;;;;;;;;;;;;;13.05;63.69;99428.66;1799980;79;20174;-56
2022/04/10 02:05:55;;;;;;;;;;;;;;;13.00;64.25;99416.09;1801474;79;20569;-56
2022/04/10 02:09:00;;;;;;;;;;;;;;;12.93;64.55;99423.48;1801574;80;20190;-57
2022/04/10 02:12:06;;;;;;;;;;;;;;;12.89;64.90;99417.27;1801610;79;20229;-58
2022/04/10 02:15:04;;;;;;;;;;;;;;;12.85;65.15;99425.60;1801599;79;20214;-58
2022/04/10 02:18:11;;;;;;;;;;;;;;;12.79;65.45;99430.06;1801544;80;20177;-59
2022/04/10 02:21:17;;;;;;;;;;;;;;;12.75;65.69;99432.91;1801423;79;20173;-57
2022/04/10 02:24:22;;;;;;;;;;;;;;;12.71;66.00;99441.27;1801476;80;20252;-58
2022/04/10 02:27:29;;;;;;;;;;;;;;;12.68;66.25;99443.59;1801455;80;20178;-58
2022/04/10 02:30:34;;;;;;;;;;;;;;;12.63;66.46;99435.98;1801419;79;20189;-58
2022/04/10 02:33:42;;;;;;;;;;;;;;;12.59;66.56;99437.45;1801064;79;20213;-58
2022/04/10 02:36:48;;;;;;;;;;;;;;;12.57;66.79;99428.61;1799960;79;20181;-58
2022/04/10 02:39:53;;;;;;;;;;;;;;;12.54;66.99;99433.67;1801446;79;20257;-58
2022/04/10 02:42:57;;;;;;;;;;;;;;;12.50;67.20;99429.64;1801459;79;20186;-58
2022/04/10 02:46:04;;;;;;;;;;;;;;;12.46;67.43;99431.98;1801458;79;20217;-59
2022/04/10 02:49:09;;;;;;;;;;;;;;;12.42;67.64;99427.95;1801464;80;20198;-57
2022/04/10 02:52:15;;;;;;;;;;;;;;;12.40;67.85;99433.36;1801469;80;20494;-60
2022/04/10 02:55:19;;;;;;;;;;;;;;;12.33;68.00;99442.95;1801546;79;20241;-57
2022/04/10 02:58:24;;;;;;;;;;;;;;;12.29;68.20;99447.70;1801597;80;20276;-58
2022/04/10 03:01:30;;;;;;;;;;;;;;;12.23;68.37;99453.48;1801421;79;20526;-58
2022/04/10 03:04:36;;;;;;;;;;;;;;;12.17;68.60;99448.84;1804035;79;20249;-58
2022/04/10 03:07:42;;;;;;;;;;;;;;;12.13;68.85;99448.09;1803965;79;20561;-59
2022/04/10 03:10:46;;;;;;;;;;;;;;;12.07;68.98;99446.20;1803770;79;20228;-59
2022/04/10 03:13:53;;;;;;;;;;;;;;;12.00;69.27;99451.66;1803846;79;20237;-58
2022/04/10 03:16:58;;;;;;;;;;;;;;;11.96;69.61;99451.74;1803932;79;20202;-58
2022/04/10 03:20:02;;;;;;;;;;;;;;;11.93;69.86;99457.12;1804028;79;20285;-58
2022/04/10 03:23:10;;;;;;;;;;;;;;;11.91;70.07;99461.97;1804017;79;20323;-57
2022/04/10 03:26:15;;;;;;;;;;;;;;;11.90;70.25;99458.92;1740791;82;20563;-58
2022/04/10 03:29:22;;;;;;;;;;;;;;;11.90;70.43;99459.43;1803218;79;20203;-62
2022/04/10 03:32:27;;;;;;;;;;;;;;;11.89;70.70;99455.84;1803831;79;20220;-59
2022/04/10 03:35:32;;;;;;;;;;;;;;;11.88;70.82;99453.30;1799579;78;20217;-60
2022/04/10 03:38:39;;;;;;;;;;;;;;;11.88;70.93;99456.05;1794761;79;20193;-59
2022/04/10 03:41:47;;;;;;;;;;;;;;;11.90;71.04;99464.41;1804135;79;20210;-57
2022/04/10 03:44:52;;;;;;;;;;;;;;;11.93;70.98;99465.88;1803793;79;20561;-58
2022/04/10 03:47:58;;;;;;;;;;;;;;;11.97;70.88;99474.02;1803979;79;20217;-59
2022/04/10 03:51:03;;;;;;;;;;;;;;;11.99;70.83;99474.64;1804006;79;20182;-55
2022/04/10 03:54:08;;;;;;;;;;;;;;;12.02;70.74;99478.34;1803883;79;20553;-58
2022/04/10 03:57:17;;;;;;;;;;;;;;;12.01;70.77;99472.02;1780974;79;20318;-58
2022/04/10 04:00:25;;;;;;;;;;;;;;;12.04;70.90;99480.36;1803797;79;20229;-58
2022/04/10 04:03:31;;;;;;;;;;;;;;;12.07;70.94;99473.08;1800377;79;20246;-59
2022/04/10 04:06:35;;;;;;;;;;;;;;;12.11;70.96;99471.62;1801518;80;20214;-58
2022/04/10 04:09:40;;;;;;;;;;;;;;;12.16;70.83;99484.20;1801096;80;20194;-58
2022/04/10 04:12:45;;;;;;;;;;;;;;;12.21;70.87;99492.63;1801493;80;20181;-59
2022/04/10 04:15:52;;;;;;;;;;;;;;;12.30;70.86;99508.38;1801461;79;20233;-58
2022/04/10 04:18:57;;;;;;;;;;;;;;;12.38;70.61;99515.91;1801345;79;20209;-59
2022/04/10 04:22:02;;;;;;;;;;;;;;;12.42;70.38;99493.83;1801734;79;20249;-58
2022/04/10 04:25:06;;;;;;;;;;;;;;;12.41;70.24;99503.13;1801321;79;20616;-58
2022/04/10 04:28:13;;;;;;;;;;;;;;;12.39;70.36;99527.19;1800928;79;20197;-58
2022/04/10 04:31:17;;;;;;;;;;;;;;;12.43;70.46;99523.51;1801376;79;20201;-57
2022/04/10 04:34:23;;;;;;;;;;;;;;;12.48;70.40;99531.97;1801414;79;20221;-59
2022/04/10 04:37:29;;;;;;;;;;;;;;;12.53;70.45;99541.25;1801370;80;20260;-59
2022/04/10 04:40:38;;;;;;;;;;;;;;;12.64;70.36;99535.66;1801545;79;20237;-57
2022/04/10 04:43:43;;;;;;;;;;;;;;;12.80;70.01;99540.23;1801595;79;20284;-57
2022/04/10 04:46:49;;;;;;;;;;;;;;;12.90;69.73;99535.69;1801293;80;20197;-59
2022/04/10 04:49:56;;;;;;;;;;;;;;;12.97;69.41;99535.99;1801064;80;20573;-58
2022/04/10 04:53:02;;;;;;;;;;;;;;;13.00;69.07;99536.12;1801271;80;20205;-58
2022/04/10 04:56:08;;;;;;;;;;;;;;;13.02;68.99;99543.11;1801224;79;20209;-58
2022/04/10 04:59:15;;;;;;;;;;;;;;;13.06;68.97;99536.67;1796839;79;20205;-58
2022/04/10 05:02:19;;;;;;;;;;;;;;;13.10;68.83;99540.15;1800915;80;20582;-56
2022/04/10 05:05:25;;;;;;;;;;;;;;;13.16;68.68;99543.41;1800209;79;20349;-57
2022/04/10 05:08:35;;;;;;;;;;;;;;;13.22;68.46;99549.98;1771674;81;20323;-58
2022/04/10 05:11:40;;;;;;;;;;;;;;;13.27;68.21;99546.89;1771976;80;20195;-57
2022/04/10 05:14:46;;;;;;;;;;;;;;;13.35;67.99;99549.97;1772346;81;20271;-57
2022/04/10 05:17:46;;;;;;;;;;;;;;;13.38;67.63;99543.48;1771329;81;20220;-58
2022/04/10 05:20:39;;;;;;;;;;;;;;;13.39;67.18;99556.20;1771228;80;20590;-59
2022/04/10 05:23:45;;;;;;;;;;;;;;;13.44;67.18;99563.28;1771401;81;20211;-59
2022/04/10 05:26:51;;;;;;;;;;;;;;;13.48;67.02;99561.77;1728428;82;20274;-58
2022/04/10 05:29:56;;;;;;;;;;;;;;;13.53;66.87;99572.98;1797942;79;20225;-58
2022/04/10 05:33:02;;;;;;;;;;;;;;;13.62;66.76;99574.13;1800311;79;20450;-57
2022/04/10 05:36:08;;;;;;;;;;;;;;;13.68;66.51;99576.01;1702189;82;20239;-57
2022/04/10 05:39:15;;;;;;;;;;;;;;;13.75;66.48;99580.98;1798882;79;20289;-58
2022/04/10 05:42:20;;;;;;;;;;;;;;;13.82;66.25;99577.66;1797587;79;20218;-57
2022/04/10 05:45:26;;;;;;;;;;;;;;;13.87;66.04;99570.98;1796106;79;20218;-58
2022/04/10 05:48:33;;;;;;;;;;;;;;;13.92;65.87;99576.69;1792782;79;20265;-58
2022/04/10 05:51:38;;;;;;;;;;;;;;;13.98;65.66;99597.31;1808620;79;20218;-58
2022/04/10 05:54:45;;;;;;;;;;;;;;;14.06;65.55;99601.72;1802392;79;20199;-66
2022/04/10 05:57:48;;;;;;;;;;;;;;;14.14;65.06;99604.23;1732233;83;20214;-65
2022/04/10 06:00:53;;;;;;;;;;;;;;;14.22;64.87;99601.23;1736814;81;20228;-66
2022/04/10 06:03:58;;;;;;;;;;;;;;;14.32;64.57;99618.14;1762018;81;20807;-67
2022/04/10 06:07:05;;;;;;;;;;;;;;;14.41;64.37;99623.73;1730306;82;20617;-64
2022/04/10 06:10:09;;;;;;;;;;;;;;;14.48;64.10;99621.78;1760457;81;20563;-64
2022/04/10 06:13:16;;;;;;;;;;;;;;;14.53;64.04;99620.08;1712448;82;20567;-65
2022/04/10 06:16:23;;;;;;;;;;;;;;;14.60;63.79;99621.42;1801820;79;20573;-63
2022/04/10 06:19:28;;;;;;;;;;;;;;;14.62;63.54;99616.51;1797868;79;20201;-65
2022/04/10 06:22:34;;;;;;;;;;;;;;;14.67;63.38;99616.70;1791582;79;20205;-65
2022/04/10 06:25:41;;;;;;;;;;;;;;;14.73;63.17;99605.64;1716759;82;20213;-64
2022/04/10 06:28:48;;;;;;;;;;;;;;;14.77;62.84;99608.81;1802492;79;20213;-65
2022/04/10 06:31:59;;;;;;;;;;;;;;;14.78;62.61;99607.73;1802343;79;20593;-64
2022/04/10 06:35:07;;;;;;;;;;;;;;;14.74;62.54;99606.50;1769897;80;20265;-63
2022/04/10 06:38:13;;;;;;;;;;;;;;;14.74;62.52;99613.39;1770384;81;20346;-62
2022/04/10 06:41:20;;;;;;;;;;;;;;;14.73;62.55;99623.55;1771672;79;20235;-63
2022/04/10 06:44:28;;;;;;;;;;;;;;;14.73;62.59;99622.17;1777165;79;20322;-63
2022/04/10 06:47:40;;;;;;;;;;;;;;;14.76;62.47;99626.42;1766952;81;20560;-63
2022/04/10 06:50:47;;;;;;;;;;;;;;;14.82;62.50;99637.41;1769244;81;20482;-62
2022/04/10 06:53:47;;;;;;;;;;;;;;;14.89;62.35;99623.55;1768780;81;20200;-63
2022/04/10 06:56:40;;;;;;;;;;;;;;;14.91;62.66;99621.43;1768871;81;20207;-63
2022/04/10 06:59:26;;;;;;;;;;;;;;;14.97;62.95;99635.69;1769378;81;20227;-63
2022/04/10 07:02:22;;;;;;;;;;;;;;;15.05;63.04;99646.45;1769410;79;20219;-63
2022/04/10 07:05:28;;;;;;;;;;;;;;;15.10;62.74;99653.53;1802127;79;20201;-63
2022/04/10 07:08:35;;;;;;;;;;;;;;;15.16;62.21;99638.02;1791462;79;20547;-62
2022/04/10 07:11:45;;;;;;;;;;;;;;;15.23;62.12;99646.55;1791761;79;20550;-62
2022/04/10 07:14:54;;;;;;;;;;;;;;;15.32;62.15;99669.19;1791720;79;20198;-62
2022/04/10 07:17:58;;;;;;;;;;;;;;;15.42;61.78;99664.89;1792304;79;20197;-62
2022/04/10 07:21:04;;;;;;;;;;;;;;;15.59;61.49;99654.97;1792749;79;20205;-62
2022/04/10 07:24:09;;;;;;;;;;;;;;;15.81;60.84;99650.73;1792261;79;20221;-62
2022/04/10 07:27:15;;;;;;;;;;;;;;;15.94;60.62;99640.95;1792676;79;20202;-62
2022/04/10 07:30:26;;;;;;;;;;;;;;;16.06;60.67;99648.77;1713988;82;20231;-62
2022/04/10 07:33:34;;;;;;;;;;;;;;;16.22;60.37;99648.72;1732778;83;20266;-62
2022/04/10 07:36:51;;;;;;;;;;;;;;;16.28;60.28;99654.14;1791277;79;20241;-63
2022/04/10 07:39:59;;;;;;;;;;;;;;;16.34;59.90;99662.91;1793918;79;20187;-63
2022/04/10 07:43:04;;;;;;;;;;;;;;;16.34;59.42;99665.67;1793347;80;20546;-63
2022/04/10 07:49:38;;;;;;;;;;;;;;;16.61;59.46;99666.75;1793886;79;20305;-63
2022/04/10 07:52:47;;;;;;;;;;;;;;;16.85;59.11;99666.65;1792917;80;20194;-64
2022/04/10 07:55:52;;;;;;;;;;;;;;;17.01;58.12;99668.77;1793251;79;20265;-64
2022/04/10 07:58:57;;;;;;;;;;;;;;;17.10;57.56;99674.79;1794430;79;20470;-63
2022/04/10 08:02:04;;;;;;;;;;;;;;;17.11;57.86;99668.20;1793448;79;20209;-63
2022/04/10 08:05:11;;;;;;;;;;;;;;;17.21;57.32;99670.69;1779206;79;20227;-61
2022/04/10 08:08:19;;;;;;;;;;;;;;;17.33;56.80;99669.34;1784458;79;20213;-64
2022/04/10 08:11:24;;;;;;;;;;;;;;;17.37;56.49;99681.08;1800295;79;20292;-62
2022/04/10 08:14:29;;;;;;;;;;;;;;;17.49;56.06;99684.74;1797479;80;20217;-63
2022/04/10 08:17:35;;;;;;;;;;;;;;;17.59;56.17;99685.55;1800601;79;20222;-63
2022/04/10 08:20:45;;;;;;;;;;;;;;;17.69;55.66;99683.04;1773838;79;20548;-59
2022/04/10 08:23:52;;;;;;;;;;;;;;;17.88;55.69;99681.86;1783912;80;20269;-60
2022/04/10 08:26:56;;;;;;;;;;;;;;;18.08;55.05;99678.18;1799220;79;20206;-57
2022/04/10 08:30:02;;;;;;;;;;;;;;;18.19;55.05;99666.25;1799084;79;20300;-59
2022/04/10 08:33:08;;;;;;;;;;;;;;;18.38;54.58;99664.20;1795101;79;20217;-60
2022/04/10 08:36:15;;;;;;;;;;;;;;;18.61;53.56;99658.09;1779643;80;20241;-59
2022/04/10 08:39:20;;;;;;;;;;;;;;;18.82;52.90;99660.73;1775091;80;20495;-59
2022/04/10 08:42:28;;;;;;;;;;;;;;;19.02;52.99;99666.14;1775406;80;20248;-58
2022/04/10 08:45:35;;;;;;;;;;;;;;;19.13;52.72;99668.02;1769135;81;20591;-58
2022/04/10 08:48:42;;;;;;;;;;;;;;;19.24;52.58;99663.48;1768339;81;20208;-60
2022/04/10 08:51:47;;;;;;;;;;;;;;;19.40;51.81;99671.58;1747719;81;20251;-60
2022/04/10 08:54:53;;;;;;;;;;;;;;;19.57;51.29;99654.41;1768343;81;20212;-59
2022/04/10 08:57:57;;;;;;;;;;;;;;;19.62;50.98;99659.49;1768359;81;20215;-60
2022/04/10 09:01:04;;;;;;;;;;;;;;;19.73;51.14;99653.55;1769200;81;20235;-57
2022/04/10 09:04:10;;;;;;;;;;;;;;;19.89;51.06;99654.09;1769963;81;20274;-58
2022/04/10 09:07:20;;;;;;;;;;;;;;;19.97;50.20;99649.50;1786663;80;20265;-58
2022/04/10 09:10:26;;;;;;;;;;;;;;;19.96;49.38;99649.22;1783638;80;20288;-58
2022/04/10 09:13:51;;;;;;;;;;;;;;;19.88;49.17;99648.26;1800383;80;20589;-59
2022/04/10 09:16:53;;;;;;;;;;;;;;;19.83;49.38;99645.39;1799622;79;20206;-60
2022/04/10 09:20:00;;;;;;;;;;;;;;;19.67;49.33;99639.29;1800143;80;20640;-59
2022/04/10 09:23:08;;;;;;;;;;;;;;;19.63;50.05;99641.72;1800503;80;20213;-60
2022/04/10 09:26:13;;;;;;;;;;;;;;;19.74;50.14;99641.37;1800511;80;20248;-59
2022/04/10 09:29:19;;;;;;;;;;;;;;;19.95;49.65;99633.63;1799642;80;20569;-60
2022/04/10 09:32:27;;;;;;;;;;;;;;;20.22;48.91;99626.28;1799886;80;20213;-57
2022/04/10 09:35:33;;;;;;;;;;;;;;;20.41;48.20;99636.00;1800150;80;20206;-58
2022/04/10 09:38:38;;;;;;;;;;;;;;;20.60;47.99;99642.39;1800175;79;20201;-58
2022/04/10 09:41:48;;;;;;;;;;;;;;;20.71;47.69;99658.11;1800064;80;20312;-58
2022/04/10 09:44:53;;;;;;;;;;;;;;;20.69;47.54;99651.13;1800441;79;20273;-58
2022/04/10 09:48:00;;;;;;;;;;;;;;;20.71;46.96;99640.56;1790621;80;20209;-58
2022/04/10 09:51:07;;;;;;;;;;;;;;;20.80;46.88;99647.38;1800671;79;20197;-57
2022/04/10 09:54:14;;;;;;;;;;;;;;;20.74;47.01;99648.39;1780146;79;20233;-58
2022/04/10 09:57:20;;;;;;;;;;;;;;;20.75;46.87;99648.70;1776083;79;20202;-59
2022/04/10 10:00:27;;;;;;;;;;;;;;;20.75;46.87;99644.52;1800434;79;20225;-58
2022/04/10 10:03:37;;;;;;;;;;;;;;;20.84;46.57;99648.52;1787858;80;20265;-56
2022/04/10 10:06:43;;;;;;;;;;;;;;;20.83;46.47;99649.63;1790799;79;20538;-57
2022/04/10 10:09:48;;;;;;;;;;;;;;;20.82;46.37;99645.72;1778031;79;20206;-57
2022/04/10 10:12:52;;;;;;;;;;;;;;;20.83;46.61;99643.50;1799748;80;20233;-57
2022/04/10 10:16:29;;;;;;;;;;;;;;;20.92;46.51;99645.28;1797612;79;20644;-62
2022/04/10 10:19:39;;;;;;;;;;;;;;;21.00;46.16;99647.63;1795488;80;20225;-69
2022/04/10 10:22:44;;;;;;;;;;;;;;;20.92;46.13;99659.19;1776602;80;20249;-66
2022/04/10 10:25:55;;;;;;;;;;;;;;;20.78;46.11;99657.91;1769279;81;20361;-66
2022/04/10 10:29:34;;;;;;;;;;;;;;;20.69;46.50;99656.70;1793292;79;20277;-64
2022/04/10 10:32:46;;;;;;;;;;;;;;;20.63;46.76;99661.34;1785795;79;20237;-69
2022/04/10 10:36:05;;;;;;;;;;;;;;;20.55;46.74;99672.09;1798905;79;20206;-65
2022/04/10 10:39:11;;;;;;;;;;;;;;;20.37;46.82;99664.89;1800341;79;20201;-65
2022/04/10 10:42:17;;;;;;;;;;;;;;;20.23;47.07;99665.51;1797509;79;20621;-63
2022/04/10 10:45:43;;;;;;;;;;;;;;;20.11;47.59;99667.50;1787304;79;20538;-64
2022/04/10 10:48:51;;;;;;;;;;;;;;;20.10;47.65;99665.83;1790397;80;20551;-63
2022/04/10 10:52:01;;;;;;;;;;;;;;;20.07;47.72;99655.22;1791611;80;20233;-64
2022/04/10 10:55:06;;;;;;;;;;;;;;;19.97;48.02;99653.67;1790509;80;20238;-64
2022/04/10 10:58:15;;;;;;;;;;;;;;;19.91;48.11;99656.93;1790198;80;20214;-65
2022/04/10 11:01:28;;;;;;;;;;;;;;;19.83;48.21;99657.36;1798608;79;20201;-64
2022/04/10 11:04:41;;;;;;;;;;;;;;;19.71;48.59;99657.97;1799295;80;20269;-63
2022/04/10 11:07:48;;;;;;;;;;;;;;;19.70;48.66;99656.30;1797819;79;20967;-65
2022/04/10 11:11:02;;;;;;;;;;;;;;;19.77;48.62;99658.91;1770268;78;20225;-64
2022/04/10 11:14:11;;;;;;;;;;;;;;;19.86;48.56;99658.77;1798076;79;20336;-64
2022/04/10 11:17:23;;;;;;;;;;;;;;;20.02;48.14;99650.44;1780985;79;20209;-65
2022/04/10 11:20:28;;;;;;;;;;;;;;;20.24;47.91;99661.08;1797185;79;20202;-65
2022/04/10 11:23:40;;;;;;;;;;;;;;;20.45;47.50;99660.82;1797276;80;20229;-66
2022/04/10 11:26:46;;;;;;;;;;;;;;;20.58;47.44;99661.84;1797088;79;20601;-64
2022/04/10 11:30:03;;;;;;;;;;;;;;;20.63;46.88;99657.70;1762616;79;20198;-59
2022/04/10 11:33:13;;;;;;;;;;;;;;;20.70;46.66;99659.75;1778546;79;20284;-59
2022/04/10 11:36:21;;;;;;;;;;;;;;;20.78;46.65;99657.91;1737103;82;20202;-56
2022/04/10 11:39:35;;;;;;;;;;;;;;;20.87;46.37;99660.52;1708971;82;20223;-65
2022/04/10 11:42:40;;;;;;;;;;;;;;;20.96;46.36;99656.73;1759129;81;20588;-64
2022/04/10 11:45:50;;;;;;;;;;;;;;;21.13;46.32;99660.30;1758713;81;20211;-67
2022/04/10 11:48:55;;;;;;;;;;;;;;;21.32;46.04;99661.08;1759610;81;20256;-64
2022/04/10 11:52:07;;;;;;;;;;;;;;;21.57;45.79;99653.50;1759828;81;20219;-67
2022/04/10 11:55:12;;;;;;;;;;;;;;;21.83;45.21;99651.27;1760636;80;20220;-64
2022/04/10 11:58:29;;;;;;;;;;;;;;;21.99;44.93;99661.42;1765786;78;20209;-64
2022/04/10 12:01:37;;;;;;;;;;;;;;;22.04;44.45;99648.92;1764838;81;20498;-65
2022/04/10 12:04:40;;;;;;;;;;;;;;;21.89;44.76;99658.01;1765692;81;20251;-63
2022/04/10 12:07:45;;;;;;;;;;;;;;;21.60;45.38;99658.00;1766437;81;20204;-63
2022/04/10 12:11:05;;;;;;;;;;;;;;;21.55;45.86;99657.95;1711222;84;20663;-65
2022/04/10 12:14:30;;;;;;;;;;;;;;;21.57;45.90;99664.10;1771653;81;20667;-63
2022/04/10 12:17:34;;;;;;;;;;;;;;;21.52;45.88;99657.08;1707751;82;20214;-64
2022/04/10 12:20:44;;;;;;;;;;;;;;;21.55;45.88;99653.77;1770227;80;20244;-62
2022/04/10 12:23:55;;;;;;;;;;;;;;;21.65;46.11;99647.44;1731809;83;20571;-63
2022/04/10 12:27:03;;;;;;;;;;;;;;;21.66;45.71;99643.00;1771283;80;20204;-62
2022/04/10 12:30:21;;;;;;;;;;;;;;;21.68;45.83;99644.13;1709895;84;20204;-63
2022/04/10 12:33:28;;;;;;;;;;;;;;;21.64;45.75;99645.23;1784926;79;20636;-63
2022/04/10 12:36:39;;;;;;;;;;;;;;;21.51;45.84;99648.45;1801344;79;20562;-66
2022/04/10 12:39:44;;;;;;;;;;;;;;;21.36;46.44;99654.44;1802033;79;20213;-66
2022/04/10 12:42:51;;;;;;;;;;;;;;;21.17;46.70;99648.38;1801439;79;20209;-66
2022/04/10 12:45:56;;;;;;;;;;;;;;;21.14;47.21;99654.47;1791689;79;20228;-69
2022/04/10 12:49:17;;;;;;;;;;;;;;;21.23;47.14;99652.88;1792543;80;20213;-62
2022/04/10 12:52:24;;;;;;;;;;;;;;;21.08;47.19;99650.48;1793172;80;20221;-66
2022/04/10 12:55:31;;;;;;;;;;;;;;;20.75;47.62;99640.35;1799057;78;20512;-64
2022/04/10 12:58:34;;;;;;;;;;;;;;;20.55;48.02;99654.83;1770711;81;20216;-66
2022/04/10 13:01:40;;;;;;;;;;;;;;;20.38;48.59;99651.81;1702796;84;20284;-63
2022/04/10 13:04:44;;;;;;;;;;;;;;;20.33;49.10;99661.46;1770852;80;20208;-64
2022/04/10 13:08:04;;;;;;;;;;;;;;;20.32;49.25;99662.57;1788949;79;20214;-64
2022/04/10 13:11:13;;;;;;;;;;;;;;;20.30;49.14;99656.42;1787923;79;20213;-65
2022/04/10 13:14:21;;;;;;;;;;;;;;;20.27;49.48;99657.78;1753812;80;20233;-66
2022/04/10 13:17:28;;;;;;;;;;;;;;;20.29;49.50;99654.75;1768147;81;20285;-63
2022/04/10 13:20:33;;;;;;;;;;;;;;;20.21;49.52;99654.64;1770994;80;20275;-65
2022/04/10 13:23:40;;;;;;;;;;;;;;;20.11;49.64;99648.05;1769045;81;20203;-63
2022/04/10 13:26:49;;;;;;;;;;;;;;;20.05;49.73;99650.45;1770048;79;20229;-59
2022/04/10 13:29:56;;;;;;;;;;;;;;;20.02;50.23;99655.99;1770092;79;20554;-62
2022/04/10 13:32:53;;;;;;;;;;;;;;;20.04;50.40;99661.30;1765091;79;20202;-67
2022/04/10 13:35:46;;;;;;;;;;;;;;;19.96;50.48;99657.02;1753153;79;20201;-66
2022/04/10 13:38:51;;;;;;;;;;;;;;;19.78;50.75;99659.19;1762233;80;20249;-65
2022/04/10 13:41:55;;;;;;;;;;;;;;;19.56;51.46;99652.71;1759708;81;20645;-69
2022/04/10 13:44:59;;;;;;;;;;;;;;;19.45;51.77;99653.62;1771597;79;20546;-63
2022/04/10 13:48:05;;;;;;;;;;;;;;;19.27;52.12;99652.73;1763799;81;20217;-64
2022/04/10 13:51:11;;;;;;;;;;;;;;;19.07;52.67;99649.59;1768348;80;20241;-64
2022/04/10 13:54:16;;;;;;;;;;;;;;;18.87;53.11;99655.26;1768530;81;20272;-64
2022/04/10 13:57:21;;;;;;;;;;;;;;;18.67;53.73;99655.71;1768645;81;20222;-63
2022/04/10 14:00:27;;;;;;;;;;;;;;;18.56;54.19;99653.81;1761271;80;20214;-62
2022/04/10 14:03:32;;;;;;;;;;;;;;;18.56;54.56;99655.20;1768636;81;20221;-63
2022/04/10 14:06:38;;;;;;;;;;;;;;;18.53;54.62;99654.31;1755050;81;20206;-62
2022/04/10 14:09:37;;;;;;;;;;;;;;;18.45;55.01;99657.45;1770354;79;20270;-63
2022/04/10 14:12:29;;;;;;;;;;;;;;;18.37;55.32;99654.17;1772737;81;20205;-62
2022/04/10 14:15:35;;;;;;;;;;;;;;;18.17;55.73;99654.55;1795155;79;20244;-62
2022/04/10 14:18:39;;;;;;;;;;;;;;;18.04;56.29;99657.60;1798481;79;20430;-62
2022/04/10 14:21:45;;;;;;;;;;;;;;;18.01;56.81;99651.70;1794146;79;20245;-62
2022/04/10 14:24:51;;;;;;;;;;;;;;;18.06;56.86;99655.97;1798515;79;20538;-62
2022/04/10 14:27:50;;;;;;;;;;;;;;;17.93;56.89;99660.66;1796550;80;20526;-59
2022/04/10 14:30:57;;;;;;;;;;;;;;;17.66;57.56;99673.83;1788534;80;20198;-63
2022/04/10 14:34:02;;;;;;;;;;;;;;;17.30;58.53;99661.52;1788204;80;20226;-63
2022/04/10 14:37:08;;;;;;;;;;;;;;;17.06;59.29;99664.73;1795668;80;20202;-61
2022/04/10 14:40:14;;;;;;;;;;;;;;;16.90;59.87;99659.03;1795429;80;20206;-63
2022/04/10 14:43:20;;;;;;;;;;;;;;;16.69;60.54;99661.76;1795081;80;20253;-63
2022/04/10 14:46:26;;;;;;;;;;;;;;;16.54;61.15;99652.19;1795590;80;20210;-63
2022/04/10 14:49:32;;;;;;;;;;;;;;;16.42;61.77;99654.31;1795680;80;20217;-63
2022/04/10 14:52:38;;;;;;;;;;;;;;;16.27;62.32;99648.32;1797589;79;20249;-62
2022/04/10 14:55:42;;;;;;;;;;;;;;;16.11;62.83;99655.00;1730891;82;20214;-61
2022/04/10 14:58:56;;;;;;;;;;;;;;;15.94;63.49;99653.36;1726814;83;20216;-58
2022/04/10 15:01:59;;;;;;;;;;;;;;;15.73;64.21;99646.88;1727119;82;20286;-60
2022/04/10 15:05:09;;;;;;;;;;;;;;;15.43;65.12;99655.53;1731070;82;20210;-63
2022/04/10 15:08:15;;;;;;;;;;;;;;;15.28;65.82;99651.39;1724057;83;20250;-61
2022/04/10 15:11:25;;;;;;;;;;;;;;;15.24;66.14;99656.50;1724323;82;20239;-60
2022/04/10 15:14:46;;;;;;;;;;;;;;;15.13;66.58;99640.67;1726277;78;20615;-60
2022/04/10 15:17:41;;;;;;;;;;;;;;;15.00;67.13;99634.72;1724231;83;20206;-64
2022/04/10 15:20:46;;;;;;;;;;;;;;;14.96;67.51;99644.52;1724074;83;20207;-62
2022/04/10 15:23:53;;;;;;;;;;;;;;;14.80;67.85;99642.28;1724138;82;20555;-63
2022/04/10 15:26:57;;;;;;;;;;;;;;;14.66;68.46;99644.80;1724007;83;20234;-62
2022/04/10 15:30:02;;;;;;;;;;;;;;;14.60;68.92;99651.16;1731288;83;20577;-62
2022/04/10 15:33:13;;;;;;;;;;;;;;;14.55;69.18;99644.13;1757292;82;20248;-63
2022/04/10 15:36:20;;;;;;;;;;;;;;;14.48;69.40;99645.19;1729066;82;20242;-63
2022/04/10 15:39:27;;;;;;;;;;;;;;;14.35;69.82;99643.34;1709847;84;20244;-60
2022/04/10 15:42:34;;;;;;;;;;;;;;;14.26;70.18;99643.80;1738158;82;20316;-61
2022/04/10 15:45:38;;;;;;;;;;;;;;;14.20;70.54;99651.53;1737542;82;20200;-63
2022/04/10 15:48:42;;;;;;;;;;;;;;;14.11;70.96;99644.02;1738613;82;20264;-63
2022/04/10 15:51:48;;;;;;;;;;;;;;;13.97;71.35;99647.88;1722863;83;20578;-63
2022/04/10 15:54:55;;;;;;;;;;;;;;;13.85;71.74;99652.36;1704256;83;20219;-62
2022/04/10 15:58:01;;;;;;;;;;;;;;;13.79;72.06;99650.99;1703360;84;20223;-63
2022/04/10 16:01:05;;;;;;;;;;;;;;;13.70;72.52;99650.91;1704436;84;20206;-63
2022/04/10 16:04:09;;;;;;;;;;;;;;;13.57;72.89;99653.67;1699500;84;20575;-63
2022/04/10 16:07:28;;;;;;;;;;;;;;;13.52;73.23;99651.56;1733328;82;20211;-62
2022/04/10 16:10:33;;;;;;;;;;;;;;;13.45;73.48;99645.20;1720204;83;20208;-65
2022/04/10 16:13:38;;;;;;;;;;;;;;;13.36;73.77;99648.72;1686394;85;20214;-61
2022/04/10 16:16:46;;;;;;;;;;;;;;;13.29;74.12;99646.48;1720866;82;20864;-62